Depue Junction, Illinois
Current Conditions -  °F | °C
As of 3:35 PM on Thursday 23 Oct 2014 (Local Time) from KVYS Reporting Station
Overcast Overcast  
Wind Chill: 58°   Ceiling: 4800
Heat Index: 58°   Visibility: 10mi
Dew Point: 43°   Wind: 14mph
Humidity: 57%   Direction: 160°SSE
Pressure: 30.08"   Gusts: NA
Location:  41.3278°N, 89.2998°W
Report Text: KVYS 232035Z AUTO 16012KT 10SM BKN048 OVC055 15/06 A3008 RMK AO2 T01450061
Loading
Personal Weather Stations






























Interactive Weather Map
Tropical Storm Tracking
New forecast layout! Learn more

10-Day Weather Forecast

Advertisements
Track Severe Weather on mobile